This is the latest recevied weather packets stored in our database for station/object DL1VED. If no packets are shown the sender has not sent any weather packets the latest 10 day(s).
| Time | Temp. | Humidity | Pressure | Rain* | Wind** | Luminosity | Snow |
|---|---|---|---|---|---|---|---|
| 1778062447 | 13.89° C | 80% | 1005.4 hPa | 0 mm | - | - | - |
| 1778061547 | 14.44° C | 79% | 1005.2 hPa | 0 mm | - | - | - |
| 1778060647 | 13.89° C | 82% | 1005.1 hPa | 0 mm | - | - | - |
| 1778059747 | 13.89° C | 83% | 1005.1 hPa | 0 mm | - | - | - |
| 1778058847 | 13.89° C | 82% | 1005.1 hPa | 0 mm | - | - | - |
| 1778057947 | 13.89° C | 81% | 1004.8 hPa | 0 mm | - | - | - |
| 1778057047 | 13.33° C | 83% | 1004.7 hPa | 0 mm | - | - | - |
| 1778056147 | 13.33° C | 83% | 1004.6 hPa | 0 mm | - | - | - |
| 1778055247 | 12.78° C | 87% | 1004.5 hPa | 0 mm | - | - | - |
| 1778054347 | 12.22° C | 87% | 1004.5 hPa | 0 mm | - | - | - |
| 1778053447 | 12.22° C | 88% | 1004.6 hPa | 0 mm | - | - | - |
| 1778052547 | 12.22° C | 89% | 1004.7 hPa | 0 mm | - | - | - |
| 1778051647 | 11.67° C | 89% | 1004.6 hPa | 0 mm | - | - | - |
| 1778050747 | 11.67° C | 89% | 1004.5 hPa | 0 mm | - | - | - |
| 1778049847 | 11.67° C | 88% | 1004.4 hPa | 0 mm | - | - | - |
| 1778048947 | 11.67° C | 88% | 1004.3 hPa | 0 mm | - | - | - |
| 1778048047 | 11.67° C | 88% | 1004.2 hPa | 0 mm | - | - | - |
| 1778047147 | 12.22° C | 88% | 1004.2 hPa | 0 mm | - | - | - |
| 1778046247 | 12.22° C | 88% | 1004.1 hPa | 0 mm | - | - | - |
| 1778045347 | 12.22° C | 88% | 1004.2 hPa | 0 mm | - | - | - |
| 1778044447 | 12.22° C | 88% | 1004.1 hPa | 0 mm | - | - | - |
| 1778043547 | 12.22° C | 88% | 1004.2 hPa | 0 mm | - | - | - |
| 1778042647 | 12.22° C | 87% | 1004.2 hPa | 0 mm | - | - | - |
| 1778041747 | 12.22° C | 87% | 1004.3 hPa | 0 mm | - | - | - |
| 1778040847 | 12.22° C | 87% | 1004.4 hPa | 0 mm | - | - | - |
* Rain latest hour (hover to see other rain measurements)
** Current wind speed in m/s (hover to see current wind gust speed)